• Join FlightAware (Why Join?)
  • Login
  • US Flag 
07:08AM EDT


 

Airport Tracker/Info


-or-


 

Live Flight TrackerFlight Track Log ✈ UCA4838 ✈ 10-May-2013 ✈ KALB - KEWR

Flight Track Log - Related Links

Times and Time Zones

All times are in EDT time to prevent confusion due to time zone crossing. See the UCA4838 flight status page for this flight to view local times or setup timezone preferences in your user account.

Time Position Orientation Groundspeed Altitude Reporting Facility
EDT Latitude Longitude Course Direction KTS MPH feet Rate Location/Type
10:31AM 42.7319 -73.8081 193° South 124 143 1,200  Level Boston Center
10:32AM 42.6797 -73.8239 193° South 184 212 2,400 1,080 Climbing Boston Center
10:33AM 42.6353 -73.8653 214° Southwest 204 235 3,600 1,140 Climbing Boston Center
10:34AM 42.5889 -73.9008 209° Southwest 199 229 4,800 1,140 Climbing Boston Center
10:36AM 42.5217 -73.9528 210° Southwest 210 242 6,400 1,140 Climbing Boston Center
10:37AM 42.4775 -73.9883 211° Southwest 210 242 7,500 1,200 Climbing Boston Center
10:38AM 42.4247 -74.0319 211° Southwest 210 242 8,900 1,200 Climbing Boston Center
10:39AM 42.3761 -74.0703 210° Southwest 210 242 9,900 540 Climbing Boston Center
10:40AM 42.3150 -74.1192 211° Southwest 236 272 10,000  Climbing Boston Center
10:41AM 42.2561 -74.1653 210° Southwest 261 300 10,000  Level Boston Center
10:42AM 42.1842 -74.2222 210° Southwest 274 315 10,000  Level Boston Center
10:43AM 42.1294 -74.2625 209° Southwest 274 315 10,000  Level Boston Center
10:44AM 42.0578 -74.3108 207° Southwest 274 315 10,000 -300 Level Boston Center
10:45AM 42.0028 -74.3539 210° Southwest 267 307 9,500 -540 Descending Boston Center
10:46AM 41.9289 -74.4075 208° Southwest 274 315 9,000 -600 Descending Boston Center
10:47AM 41.8697 -74.4503 208° Southwest 274 315 8,300 -600 Descending Boston Center
10:48AM 41.8003 -74.5008 208° Southwest 274 315 7,900 -660 Descending Boston Center
10:49AM 41.7392 -74.5322 201° Southwest 269 310 7,000 -480 Descending Boston Center
10:50AM 41.6617 -74.5464 188° South 264 304 7,000 -420 Level Boston Center
10:51AM 41.5969 -74.5581 188° South 258 297 6,200 -540 Descending Boston Center
10:52AM 41.5194 -74.5722 188° South 258 297 6,000 -120 Descending Boston Center
10:53AM 41.4611 -74.5814 187° South 252 290 6,000  Level Boston Center
10:54AM 41.3500 -74.6167 193° South 237 273 6,000 -120 Level New York TRACON
10:55AM 41.2833 -74.5667 151° Southeast 257 296 5,700 -540 Descending New York TRACON
10:56AM 41.2333 -74.5000 135° Southeast 265 305 5,000 -360 Descending New York TRACON
10:57AM 41.1833 -74.4500 143° Southeast 252 290 5,000  Level New York TRACON
10:58AM 41.1333 -74.3833 135° Southeast 250 288 5,000  Level New York TRACON
10:59AM 41.0833 -74.3167 135° Southeast 248 285 5,000  Level New York TRACON
11:00AM 41.0333 -74.2667 143° Southeast 247 284 5,000 -540 Level New York TRACON
11:01AM 40.9667 -74.2000 143° Southeast 257 296 4,000 -600 Descending New York TRACON
11:02AM 40.9333 -74.1500 131° Southeast 197 227 3,900 -420 Descending New York TRACON
11:03AM 40.8833 -74.1000 143° Southeast 198 228 3,200 -480 Descending New York TRACON
11:04AM 40.8500 -74.0667 143° Southeast 197 227 3,000 -300 Descending New York TRACON
11:05AM 40.8000 -74.1000 207° Southwest 183 211 2,700 -720 Descending New York TRACON
11:06AM 40.7500 -74.1333 207° Southwest 169 194 1,600 -1,080 Descending New York TRACON
11:07AM 40.7167 -74.1500 201° Southwest 118 136 600 -1,020 Descending New York TRACON
11:09AM 40.6925 -74.1687 170° South  Level Estimated
11:16AM 40.6925 -74.1687 170° South  Level Estimated
11:17AM 40.6925 -74.1687 170° South  Level Estimated